Time;durP1;ratioP1;P1;durP2;ratioP2;P2;SDS_P1;SDS_P2;PMS_P1;PMS_P2;Temp;Humidity;BMP_temperature;BMP_pressure;BME280_temperature;BME280_humidity;BME280_pressure;Samples;Min_cycle;Max_cycle;Signal;HPM_P1;HPM_P2
2022/11/10 00:00:18;;;;;;;;;5.00;4.00;;;;;14.18;55.65;101484.34;5069077;28;46742;-43
2022/11/10 00:02:44;;;;;;;;;8.75;5.50;;;;;14.16;55.41;101483.50;5076941;27;45492;-42
2022/11/10 00:05:10;;;;;;;;;3.50;3.50;;;;;14.15;55.70;101479.16;5071255;27;46560;-42
2022/11/10 00:07:36;;;;;;;;;7.00;5.00;;;;;14.15;55.51;101491.47;5070901;27;45883;-45
2022/11/10 00:10:02;;;;;;;;;11.75;6.75;;;;;14.15;55.79;101496.75;5071406;28;45363;-44
2022/11/10 00:12:29;;;;;;;;;9.75;9.25;;;;;14.15;55.70;101494.97;5074629;27;45446;-44
2022/11/10 00:17:38;;;;;;;;;8.25;7.50;;;;;14.16;55.58;101503.72;5077616;27;45728;-43
2022/11/10 00:20:04;;;;;;;;;12.50;8.25;;;;;14.17;55.69;101505.44;5078375;27;74395;-41
2022/11/10 00:22:31;;;;;;;;;13.75;8.25;;;;;14.16;56.06;101506.34;5074784;27;45386;-43
2022/11/10 00:24:56;;;;;;;;;8.25;7.00;;;;;14.18;55.75;101513.31;5080049;27;45453;-47
2022/11/10 00:27:21;;;;;;;;;8.50;6.75;;;;;14.18;55.83;101526.47;5072622;27;46935;-47
2022/11/10 00:29:47;;;;;;;;;8.50;7.00;;;;;14.18;55.65;101518.56;5076569;27;46756;-47
2022/11/10 00:32:12;;;;;;;;;5.75;5.25;;;;;14.16;55.50;101525.63;5075747;28;67976;-48
2022/11/10 00:34:37;;;;;;;;;6.75;5.50;;;;;14.17;56.25;101522.09;5075963;27;68011;-46
2022/11/10 00:37:03;;;;;;;;;5.75;4.50;;;;;14.17;55.73;101523.88;5076926;27;45475;-45
2022/11/10 00:39:28;;;;;;;;;10.25;7.50;;;;;14.18;56.34;101530.84;5077696;28;49399;-46
2022/11/10 00:41:53;;;;;;;;;10.50;7.00;;;;;14.18;56.06;101528.22;5065899;27;65696;-47
2022/11/10 00:44:19;;;;;;;;;12.50;8.75;;;;;14.19;55.95;101524.69;5076389;27;60168;-44
2022/11/10 00:46:44;;;;;;;;;13.50;9.00;;;;;14.20;55.84;101521.13;5064424;27;45592;-45
2022/11/10 00:49:10;;;;;;;;;13.50;11.75;;;;;14.19;56.27;101522.06;5079767;27;45418;-43
2022/11/10 00:51:35;;;;;;;;;11.00;9.00;;;;;14.21;56.02;101522.88;5071808;28;45501;-45
2022/11/10 00:54:01;;;;;;;;;12.50;9.75;;;;;14.20;55.88;101535.19;5076954;27;66299;-46
2022/11/10 00:56:26;;;;;;;;;14.25;10.00;;;;;14.17;56.31;101531.78;5076119;27;66170;-47
2022/11/10 00:58:51;;;;;;;;;12.75;9.00;;;;;14.14;55.80;101534.47;5083430;27;46078;-45
2022/11/10 01:01:18;;;;;;;;;9.00;7.00;;;;;14.12;56.33;101534.53;5070001;27;45340;-45
2022/11/10 01:03:44;;;;;;;;;11.50;9.50;;;;;14.12;56.60;101542.41;5114697;27;45464;-48
2022/11/10 01:06:12;;;;;;;;;15.00;10.00;;;;;14.11;56.12;101540.72;5071646;27;45503;-47
2022/11/10 01:08:38;;;;;;;;;12.00;10.00;;;;;14.11;56.24;101553.88;5081544;27;46829;-48
2022/11/10 01:11:12;;;;;;;;;12.50;8.25;;;;;14.11;56.03;101553.00;5079232;27;45382;-43
2022/11/10 01:13:38;;;;;;;;;11.75;10.75;;;;;14.09;56.71;101549.53;5089500;27;45290;-44
2022/11/10 01:16:05;;;;;;;;;12.50;10.00;;;;;14.06;56.30;101545.25;5082661;27;45398;-43
2022/11/10 01:18:31;;;;;;;;;15.00;10.00;;;;;14.06;56.48;101555.78;5081309;27;45340;-47
2022/11/10 01:20:56;;;;;;;;;10.00;7.25;;;;;14.05;56.71;101543.50;5068923;28;45430;-45
2022/11/10 01:23:22;;;;;;;;;10.75;10.75;;;;;14.05;56.47;101554.03;5070878;28;53763;-44
2022/11/10 01:25:47;;;;;;;;;12.25;10.75;;;;;14.05;56.84;101554.88;5068055;27;72688;-43
2022/11/10 01:28:12;;;;;;;;;11.00;9.25;;;;;14.04;56.36;101560.19;5075998;27;45547;-41
2022/11/10 01:30:38;;;;;;;;;11.50;8.00;;;;;14.04;56.40;101560.19;5069320;27;62140;-42
2022/11/10 01:33:03;;;;;;;;;10.75;9.00;;;;;14.03;56.46;101559.34;5078889;27;45548;-46
2022/11/10 01:35:28;;;;;;;;;10.25;10.00;;;;;14.02;56.46;101560.25;5070952;27;68442;-42
2022/11/10 01:37:54;;;;;;;;;12.00;8.25;;;;;14.03;56.86;101564.59;5075264;28;70327;-43
2022/11/10 01:40:20;;;;;;;;;14.75;10.75;;;;;14.03;56.36;101567.22;5072154;27;61708;-43
2022/11/10 01:42:51;;;;;;;;;10.25;7.75;;;;;14.02;56.49;101573.41;5063387;28;45431;-44
2022/11/10 01:45:22;;;;;;;;;9.25;8.00;;;;;14.02;56.83;101575.16;5078408;27;45386;-43
2022/11/10 01:47:53;;;;;;;;;11.25;10.50;;;;;14.01;56.85;101573.47;5075438;27;45518;-43
2022/11/10 01:50:19;;;;;;;;;10.75;9.00;;;;;14.01;56.74;101584.00;5077999;27;45759;-44
2022/11/10 01:52:47;;;;;;;;;10.25;9.00;;;;;14.00;56.79;101582.25;5084111;27;45509;-42
2022/11/10 01:55:13;;;;;;;;;10.25;9.25;;;;;13.98;57.00;101590.19;5073255;28;45445;-43
2022/11/10 01:57:38;;;;;;;;;9.25;7.25;;;;;13.97;57.10;101587.59;5067574;27;72955;-44
2022/11/10 02:00:04;;;;;;;;;9.75;9.75;;;;;13.94;56.55;101590.31;5075685;28;60494;-44
2022/11/10 02:02:46;;;;;;;;;15.00;10.75;;;;;13.90;56.89;101594.81;5074544;27;45475;-42
2022/11/10 02:05:12;;;;;;;;;10.00;7.00;;;;;13.89;56.69;101602.75;5076365;28;45300;-45
2022/11/10 02:07:38;;;;;;;;;9.75;8.75;;;;;13.83;57.22;101602.00;5094351;27;68930;-44
2022/11/10 02:10:04;;;;;;;;;11.00;9.00;;;;;13.80;57.25;101599.44;5081483;27;45406;-45
2022/11/10 02:12:37;;;;;;;;;11.00;9.50;;;;;13.80;56.83;101603.84;5094371;27;45450;-43
2022/11/10 02:15:07;;;;;;;;;12.50;10.00;;;;;13.78;57.38;101601.25;5075855;28;45274;-46
2022/11/10 02:17:33;;;;;;;;;14.25;10.00;;;;;13.79;57.26;101600.38;5070418;27;45696;-44
2022/11/10 02:20:06;;;;;;;;;11.50;8.75;;;;;13.81;57.10;101598.53;5081361;28;45578;-46
2022/11/10 02:22:32;;;;;;;;;6.00;5.25;;;;;13.80;57.46;101595.94;5080776;28;45406;-46
2022/11/10 02:24:57;;;;;;;;;10.25;7.25;;;;;13.81;57.15;101602.91;5080800;27;45423;-44
2022/11/10 02:27:22;;;;;;;;;14.25;10.50;;;;;13.80;57.23;101599.44;5081966;27;45361;-43
2022/11/10 02:29:48;;;;;;;;;12.50;7.75;;;;;13.80;56.90;101598.59;5079813;27;59344;-46
2022/11/10 02:32:13;;;;;;;;;10.00;8.25;;;;;13.79;57.28;101604.75;5081462;27;57203;-42
2022/11/10 02:34:38;;;;;;;;;10.75;8.25;;;;;13.77;57.18;101601.28;5079354;27;68593;-43
2022/11/10 02:37:04;;;;;;;;;9.50;8.50;;;;;13.77;57.39;101599.50;5079584;28;73682;-43
2022/11/10 02:39:29;;;;;;;;;9.00;9.00;;;;;13.77;57.39;101598.66;5066175;28;45443;-45
2022/11/10 02:41:54;;;;;;;;;9.25;6.25;;;;;13.75;57.20;101603.94;5078692;27;61658;-45
2022/11/10 02:44:20;;;;;;;;;11.75;8.75;;;;;13.73;57.41;101602.28;5074761;27;51434;-44
2022/11/10 02:46:45;;;;;;;;;11.75;9.25;;;;;13.72;57.20;101600.53;5077883;27;46100;-42
2022/11/10 02:49:10;;;;;;;;;14.00;9.00;;;;;13.69;57.44;101606.75;5078234;27;45248;-45
2022/11/10 02:51:36;;;;;;;;;6.50;5.25;;;;;13.66;57.33;101596.31;5077665;27;59627;-42
2022/11/10 02:54:01;;;;;;;;;11.50;8.75;;;;;13.66;57.59;101606.84;5076769;27;57775;-43
2022/11/10 02:56:26;;;;;;;;;11.00;9.00;;;;;13.62;57.73;101606.03;5071621;27;74795;-44
2022/11/10 02:58:52;;;;;;;;;13.25;8.25;;;;;13.60;57.36;101607.00;5075299;28;68617;-47
2022/11/10 03:01:17;;;;;;;;;8.75;7.50;;;;;13.58;57.85;101607.03;5093894;27;45594;-44
2022/11/10 03:03:42;;;;;;;;;12.00;10.00;;;;;13.58;57.82;101603.53;5071847;27;69880;-43
2022/11/10 03:06:08;;;;;;;;;10.00;7.00;;;;;13.58;57.84;101612.31;5079450;27;72112;-44
2022/11/10 03:08:33;;;;;;;;;11.00;7.25;;;;;13.58;57.99;101612.31;5079323;27;68561;-42
2022/11/10 03:10:58;;;;;;;;;10.25;7.50;;;;;13.58;57.92;101608.78;5077731;27;45623;-43
2022/11/10 03:13:24;;;;;;;;;10.00;9.75;;;;;13.57;57.96;101607.06;5081489;27;64081;-42
2022/11/10 03:15:50;;;;;;;;;9.50;8.00;;;;;13.58;58.09;101604.41;5078562;27;45502;-41
2022/11/10 03:18:16;;;;;;;;;13.50;10.75;;;;;13.58;58.20;101604.41;5103667;27;45387;-42
2022/11/10 03:20:41;;;;;;;;;14.00;11.00;;;;;13.57;57.64;101613.19;5071806;28;45290;-43
2022/11/10 03:23:06;;;;;;;;;13.50;10.75;;;;;13.57;58.06;101610.56;5076064;28;45391;-43
2022/11/10 03:25:33;;;;;;;;;15.75;11.25;;;;;13.56;57.65;101600.94;5064296;27;46049;-46
2022/11/10 03:27:58;;;;;;;;;12.50;11.00;;;;;13.57;57.71;101615.81;5070203;28;45400;-42
2022/11/10 03:30:24;;;;;;;;;13.50;13.00;;;;;13.55;58.07;101616.78;5078610;27;45421;-44
2022/11/10 03:32:49;;;;;;;;;13.75;10.50;;;;;13.52;58.13;101619.47;5087676;27;45415;-45
2022/11/10 03:35:15;;;;;;;;;12.75;11.75;;;;;13.52;57.81;101609.81;5078441;28;53095;-44
2022/11/10 03:37:41;;;;;;;;;16.50;11.25;;;;;13.50;57.98;101608.13;5080295;27;45292;-43
2022/11/10 03:40:09;;;;;;;;;13.50;13.50;;;;;13.51;57.97;101626.50;5080064;27;45345;-44
2022/11/10 03:42:34;;;;;;;;;13.25;11.75;;;;;13.49;57.91;101630.91;5080615;27;45495;-43
2022/11/10 03:44:59;;;;;;;;;13.00;10.50;;;;;13.48;57.86;101630.06;5078509;28;71013;-45
2022/11/10 03:47:25;;;;;;;;;11.50;10.00;;;;;13.50;58.05;101635.28;5080246;27;53890;-43
2022/11/10 03:49:51;;;;;;;;;15.75;11.00;;;;;13.47;58.28;101630.09;5079474;27;45417;-43
2022/11/10 03:52:16;;;;;;;;;14.25;12.00;;;;;13.45;58.19;101624.88;5080554;27;45327;-46
2022/11/10 03:54:42;;;;;;;;;15.50;10.75;;;;;13.44;58.08;101628.41;5075631;27;45891;-43
2022/11/10 03:57:07;;;;;;;;;14.00;9.50;;;;;13.43;58.44;101638.97;5080716;27;45457;-44
2022/11/10 03:59:32;;;;;;;;;10.50;6.75;;;;;13.43;58.15;101636.34;5078932;28;65652;-43
2022/11/10 04:01:58;;;;;;;;;11.75;9.25;;;;;13.42;58.18;101638.13;5078253;27;45528;-43
2022/11/10 04:09:54;;;;;;;;;12.50;8.25;;;;;13.38;58.50;101646.09;5076211;27;45252;-43
2022/11/10 04:17:49;;;;;;;;;10.75;9.50;;;;;13.30;58.34;101641.84;5078048;27;45311;-43
2022/11/10 04:20:15;;;;;;;;;9.00;9.00;;;;;13.29;58.47;101650.63;5075784;28;47171;-47
2022/11/10 04:25:24;;;;;;;;;13.00;9.75;;;;;13.29;58.26;101655.03;5061607;28;46238;-43
2022/11/10 04:27:49;;;;;;;;;11.00;10.75;;;;;13.29;58.36;101658.50;5071630;28;45319;-45
2022/11/10 04:30:15;;;;;;;;;10.75;9.50;;;;;13.29;58.37;101650.63;5078037;27;45242;-47
2022/11/10 04:32:40;;;;;;;;;16.50;9.00;;;;;13.30;58.48;101659.41;5079132;27;66564;-44
2022/11/10 04:35:05;;;;;;;;;9.75;9.00;;;;;13.30;58.61;101662.88;5067154;28;71452;-42
2022/11/10 04:37:31;;;;;;;;;9.25;8.00;;;;;13.29;58.43;101663.78;5076574;27;45474;-43
2022/11/10 04:39:56;;;;;;;;;12.00;9.25;;;;;13.30;58.64;101675.19;5075222;27;67274;-44
2022/11/10 04:42:21;;;;;;;;;11.50;8.75;;;;;13.29;58.27;101670.81;5078101;27;72066;-43
2022/11/10 04:44:47;;;;;;;;;11.50;9.75;;;;;13.29;58.54;101665.56;5071289;28;72020;-43
2022/11/10 04:47:12;;;;;;;;;10.25;9.00;;;;;13.25;58.59;101679.69;5075434;27;45344;-45
2022/11/10 04:49:37;;;;;;;;;10.75;8.00;;;;;13.23;58.29;101678.84;5072402;27;45421;-43
2022/11/10 04:52:03;;;;;;;;;11.25;9.00;;;;;13.22;58.62;101680.59;5079445;27;45227;-44
2022/11/10 04:54:28;;;;;;;;;9.00;8.25;;;;;13.19;58.10;101682.44;5069321;27;45533;-42
2022/11/10 04:56:54;;;;;;;;;10.75;6.75;;;;;13.18;58.31;101683.34;5073663;27;72172;-46
2022/11/10 04:59:19;;;;;;;;;10.50;8.50;;;;;13.16;58.51;101686.00;5074533;27;59061;-44
2022/11/10 05:01:44;;;;;;;;;8.50;8.50;;;;;13.16;58.70;101687.78;5079487;27;45393;-46
2022/11/10 05:04:10;;;;;;;;;12.00;9.00;;;;;13.13;58.68;101687.84;5071036;27;68589;-42
2022/11/10 05:06:35;;;;;;;;;10.50;8.25;;;;;13.13;58.25;101704.47;5074415;27;67490;-45
2022/11/10 05:09:00;;;;;;;;;11.00;8.75;;;;;13.10;58.51;101699.25;5073635;28;66359;-44
2022/11/10 05:11:26;;;;;;;;;12.25;10.50;;;;;13.09;58.39;101711.53;5078475;27;70018;-42
2022/11/10 05:13:51;;;;;;;;;10.75;8.75;;;;;13.06;58.76;101708.97;5070684;27;76085;-44
2022/11/10 05:16:16;;;;;;;;;8.50;7.00;;;;;13.06;59.01;101713.38;5075143;28;69433;-44
2022/11/10 05:18:41;;;;;;;;;12.00;8.75;;;;;13.05;58.67;101712.53;5070885;27;63340;-44
2022/11/10 05:21:07;;;;;;;;;10.75;9.75;;;;;13.05;58.53;101716.88;5077627;27;46683;-43
2022/11/10 05:23:39;;;;;;;;;14.50;7.75;;;;;13.02;58.56;101717.84;5070589;27;47015;-43
2022/11/10 05:26:10;;;;;;;;;8.50;8.50;;;;;13.01;58.98;101726.59;5068879;28;45285;-50
2022/11/10 05:28:35;;;;;;;;;10.75;8.00;;;;;12.99;58.93;101727.53;5063998;28;45534;-44
2022/11/10 05:31:01;;;;;;;;;10.75;8.00;;;;;12.99;58.95;101731.03;5061493;28;45512;-42
2022/11/10 05:33:26;;;;;;;;;9.50;7.50;;;;;12.99;58.91;101736.28;5070189;28;47156;-43
2022/11/10 05:35:51;;;;;;;;;9.00;8.50;;;;;12.94;58.65;101737.28;5069492;27;70956;-44
2022/11/10 05:38:17;;;;;;;;;9.25;8.25;;;;;12.90;58.63;101739.09;5074451;27;61188;-43
2022/11/10 05:40:42;;;;;;;;;8.25;8.25;;;;;12.86;58.99;101742.72;5072246;27;60565;-43
2022/11/10 05:43:09;;;;;;;;;13.50;8.00;;;;;12.86;59.04;101747.97;5073568;28;45254;-42
2022/11/10 05:45:34;;;;;;;;;15.25;10.00;;;;;12.85;59.25;101747.06;5064813;27;45501;-43
2022/11/10 05:48:00;;;;;;;;;17.00;12.00;;;;;12.86;59.05;101746.19;5071482;28;66882;-45
2022/11/10 05:50:25;;;;;;;;;11.25;9.75;;;;;12.86;58.95;101750.59;5068401;28;66671;-43
2022/11/10 05:52:52;;;;;;;;;11.50;9.25;;;;;12.84;58.77;101753.25;5073856;27;45303;-42
2022/11/10 05:55:23;;;;;;;;;11.00;10.25;;;;;12.83;59.30;101748.00;5073485;27;45362;-46
2022/11/10 05:57:50;;;;;;;;;10.75;8.00;;;;;12.83;59.35;101758.53;5071884;28;45323;-43
2022/11/10 06:00:20;;;;;;;;;8.00;7.25;;;;;12.83;58.92;101754.13;5068438;28;45275;-42
2022/11/10 06:02:45;;;;;;;;;7.25;7.25;;;;;12.83;59.35;101758.53;5066559;27;46994;-42
2022/11/10 06:05:10;;;;;;;;;9.00;7.00;;;;;12.81;59.32;101747.19;5072177;28;69192;-42
2022/11/10 06:07:39;;;;;;;;;10.25;7.75;;;;;12.80;58.88;101754.22;5071108;27;59340;-46
2022/11/10 06:10:04;;;;;;;;;8.25;8.00;;;;;12.80;59.39;101750.69;5074914;28;69513;-48
2022/11/10 06:12:30;;;;;;;;;10.00;7.75;;;;;12.80;59.50;101758.56;5073652;27;45311;-45
2022/11/10 06:14:56;;;;;;;;;9.50;6.25;;;;;12.82;59.38;101762.03;5072886;27;45347;-46
2022/11/10 06:17:23;;;;;;;;;10.00;7.00;;;;;12.80;59.48;101759.47;5075490;28;45546;-45
2022/11/10 06:19:48;;;;;;;;;12.50;8.75;;;;;12.82;59.30;101767.28;5063642;28;45364;-46
2022/11/10 06:22:14;;;;;;;;;9.00;7.00;;;;;12.80;59.30;101767.34;5057721;28;67104;-48
2022/11/10 06:24:39;;;;;;;;;10.75;8.50;;;;;12.79;59.05;101759.50;5065418;28;45353;-43
2022/11/10 06:27:04;;;;;;;;;8.50;7.50;;;;;12.77;59.66;101762.16;5069420;28;45387;-45
2022/11/10 06:29:30;;;;;;;;;8.50;6.50;;;;;12.77;59.26;101767.41;5069611;27;70677;-44
2022/11/10 06:31:56;;;;;;;;;9.00;7.00;;;;;12.78;59.50;101766.47;5071914;27;59364;-45
2022/11/10 06:34:22;;;;;;;;;9.00;7.50;;;;;12.81;59.25;101776.09;5069470;28;55519;-46
2022/11/10 06:36:47;;;;;;;;;9.00;8.00;;;;;12.79;59.26;101780.50;5070672;28;45435;-45
2022/11/10 06:39:12;;;;;;;;;10.50;8.75;;;;;12.79;58.99;101778.72;5073287;27;71458;-46
2022/11/10 06:41:37;;;;;;;;;16.00;9.50;;;;;12.78;59.56;101782.25;5069825;28;65775;-47
2022/11/10 06:44:03;;;;;;;;;10.50;8.50;;;;;12.79;59.37;101788.38;5075705;28;68089;-50
2022/11/10 06:46:28;;;;;;;;;10.75;9.50;;;;;12.80;59.21;101792.72;5068114;28;61952;-44
2022/11/10 06:48:53;;;;;;;;;13.25;11.00;;;;;12.80;59.50;101800.59;5072423;27;63851;-47
2022/11/10 06:51:19;;;;;;;;;13.50;10.00;;;;;12.79;59.31;101798.91;5073393;27;46129;-47
2022/11/10 06:53:44;;;;;;;;;9.75;9.00;;;;;12.79;59.05;101802.38;5074757;27;62370;-47
2022/11/10 06:56:09;;;;;;;;;9.50;9.00;;;;;12.78;59.26;101802.41;5075467;27;45512;-48
2022/11/10 06:58:35;;;;;;;;;13.00;10.00;;;;;12.77;58.89;101811.19;5070154;27;74984;-48
2022/11/10 07:01:00;;;;;;;;;8.75;7.75;;;;;12.75;59.42;101810.34;5079696;28;71592;-50
2022/11/10 07:03:26;;;;;;;;;8.50;8.00;;;;;12.76;59.34;101827.84;5072787;27;45291;-47
2022/11/10 07:05:51;;;;;;;;;13.25;10.25;;;;;12.77;59.44;101832.22;5072784;27;45478;-49
2022/11/10 07:08:16;;;;;;;;;11.00;9.25;;;;;12.78;59.48;101839.19;5088953;27;56838;-52
2022/11/10 07:10:43;;;;;;;;;11.00;9.00;;;;;12.77;59.25;101838.31;5062442;28;50288;-51
2022/11/10 07:13:09;;;;;;;;;10.00;9.25;;;;;12.79;59.20;101836.53;5074035;27;45769;-48
2022/11/10 07:15:35;;;;;;;;;13.50;10.75;;;;;12.78;59.23;101847.91;5055791;28;45433;-49
2022/11/10 07:18:03;;;;;;;;;11.75;9.50;;;;;12.79;59.38;101848.81;5078979;27;48727;-49
2022/11/10 07:20:30;;;;;;;;;10.00;7.25;;;;;12.79;58.90;101856.69;5078395;28;46894;-47
2022/11/10 07:23:04;;;;;;;;;13.25;9.25;;;;;12.79;59.05;101861.94;5069839;27;45429;-47
2022/11/10 07:25:31;;;;;;;;;13.00;10.25;;;;;12.79;59.38;101860.16;5068848;28;45433;-47
2022/11/10 07:27:59;;;;;;;;;13.50;12.00;;;;;12.77;59.20;101851.44;5067437;28;45325;-47
2022/11/10 07:30:25;;;;;;;;;10.00;8.75;;;;;12.76;59.32;101860.22;5078097;27;47159;-48
2022/11/10 07:33:02;;;;;;;;;11.50;10.25;;;;;12.73;59.20;101863.78;5068352;27;45832;-50
2022/11/10 07:35:28;;;;;;;;;10.00;8.25;;;;;12.75;59.24;101868.13;5081170;27;45401;-47
2022/11/10 07:37:54;;;;;;;;;12.25;10.00;;;;;12.74;59.41;101872.50;5068235;27;45568;-47
2022/11/10 07:40:20;;;;;;;;;10.25;9.25;;;;;12.75;59.11;101876.88;5066651;28;46321;-48
2022/11/10 07:42:46;;;;;;;;;13.75;10.00;;;;;12.75;59.42;101882.13;5076376;27;46122;-48
2022/11/10 07:45:11;;;;;;;;;14.00;11.00;;;;;12.76;59.09;101888.25;5079968;28;45379;-45
2022/11/10 07:47:36;;;;;;;;;14.75;11.75;;;;;12.75;59.24;101886.50;5075688;27;45480;-50
2022/11/10 07:50:02;;;;;;;;;12.25;8.75;;;;;12.76;59.18;101889.09;5064309;28;71540;-47
2022/11/10 07:52:27;;;;;;;;;10.00;8.00;;;;;12.71;59.16;101891.84;5068791;28;45745;-48
2022/11/10 07:54:52;;;;;;;;;13.75;8.00;;;;;12.77;59.42;101897.88;5068993;27;45490;-47
2022/11/10 07:57:18;;;;;;;;;15.25;12.75;;;;;12.79;59.08;101909.22;5070577;28;69577;-48
2022/11/10 07:59:43;;;;;;;;;13.75;11.00;;;;;12.78;59.62;101916.22;5077267;27;75583;-49
2022/11/10 08:02:12;;;;;;;;;11.25;10.50;;;;;12.78;59.21;101926.72;5083338;27;45334;-47
2022/11/10 08:04:37;;;;;;;;;13.75;12.25;;;;;12.78;59.57;101925.84;5081556;27;69327;-48
2022/11/10 08:07:03;;;;;;;;;13.75;11.50;;;;;12.80;59.33;101932.84;5065936;28;45371;-48
2022/11/10 08:09:28;;;;;;;;;13.25;10.00;;;;;12.82;59.43;101940.66;5077856;27;73098;-46
2022/11/10 08:11:54;;;;;;;;;18.75;12.25;;;;;12.84;59.23;101952.91;5067087;27;45268;-48
2022/11/10 08:14:19;;;;;;;;;16.75;12.00;;;;;12.87;59.32;101954.59;5079164;28;45372;-46
2022/11/10 08:16:44;;;;;;;;;14.75;11.00;;;;;12.88;59.10;101945.81;5080227;27;45308;-46
2022/11/10 08:19:10;;;;;;;;;15.00;12.75;;;;;12.89;59.30;101953.69;5071463;28;72826;-49
2022/11/10 08:21:35;;;;;;;;;14.50;11.25;;;;;12.91;59.00;101962.41;5074309;28;45506;-49
2022/11/10 08:24:00;;;;;;;;;18.25;13.50;;;;;12.92;59.37;101958.00;5073404;28;45319;-46
2022/11/10 08:26:26;;;;;;;;;14.75;11.25;;;;;12.93;59.12;101974.66;5077351;27;70679;-47
2022/11/10 08:28:51;;;;;;;;;18.25;15.25;;;;;12.94;59.34;101969.34;5079586;28;45339;-48
2022/11/10 08:31:17;;;;;;;;;14.50;12.25;;;;;12.96;58.96;101971.97;5079312;27;49666;-46
2022/11/10 08:33:42;;;;;;;;;17.50;15.00;;;;;12.98;59.31;101970.16;5079522;27;45752;-49
2022/11/10 08:36:08;;;;;;;;;19.50;13.25;;;;;13.00;58.88;101966.63;5078201;27;60223;-51
2022/11/10 08:38:33;;;;;;;;;18.75;16.25;;;;;13.03;59.23;101976.22;5067551;27;46899;-46
2022/11/10 08:40:58;;;;;;;;;17.50;15.75;;;;;13.04;59.10;101980.59;5088614;27;60731;-51
2022/11/10 08:43:24;;;;;;;;;18.25;15.75;;;;;13.05;58.77;101975.31;5078789;28;60981;-50
2022/11/10 08:45:53;;;;;;;;;18.75;16.00;;;;;13.07;58.74;101977.91;5075747;28;45792;-50
2022/11/10 08:48:19;;;;;;;;;17.25;14.00;;;;;13.08;58.81;101977.00;5071091;28;46546;-47
2022/11/10 08:50:45;;;;;;;;;17.50;16.75;;;;;13.10;59.02;101988.34;5077815;28;45375;-47
2022/11/10 08:53:12;;;;;;;;;18.75;17.25;;;;;13.11;58.69;101998.84;5079602;28;45359;-47
2022/11/10 08:55:38;;;;;;;;;24.50;18.25;;;;;13.12;58.74;101997.09;5077872;28;45493;-47
2022/11/10 08:58:04;;;;;;;;;19.50;18.25;;;;;13.14;58.84;102003.19;5073394;27;46209;-48
2022/11/10 09:00:30;;;;;;;;;24.25;16.25;;;;;13.15;58.56;102007.53;5079692;28;45248;-49
2022/11/10 09:03:02;;;;;;;;;17.50;12.50;;;;;13.17;58.50;102002.25;5080253;28;45221;-46
2022/11/10 09:05:27;;;;;;;;;20.50;17.75;;;;;13.17;58.79;102002.25;5078216;27;45489;-49
2022/11/10 09:07:52;;;;;;;;;23.00;18.00;;;;;13.17;58.59;102004.91;5078861;27;67972;-47
2022/11/10 09:10:18;;;;;;;;;30.75;21.50;;;;;13.20;58.55;102015.38;5061708;28;45365;-49
2022/11/10 09:12:43;;;;;;;;;23.75;21.75;;;;;13.20;58.65;102018.00;5079538;28;45314;-51
2022/11/10 09:15:10;;;;;;;;;25.25;19.00;;;;;13.19;58.51;102021.50;5075467;28;45234;-51
2022/11/10 09:17:36;;;;;;;;;23.25;20.25;;;;;13.20;58.96;102021.47;5078372;28;46080;-52
2022/11/10 09:20:03;;;;;;;;;28.25;21.25;;;;;13.23;58.54;102023.19;5071691;28;45402;-48
2022/11/10 09:22:28;;;;;;;;;23.50;22.00;;;;;13.25;58.77;102022.28;5088034;27;45291;-52
2022/11/10 09:24:53;;;;;;;;;24.75;21.75;;;;;13.25;58.41;102024.91;5067326;27;70649;-52
2022/11/10 09:27:19;;;;;;;;;22.75;19.00;;;;;13.26;58.60;102031.00;5065769;27;68247;-47
2022/11/10 09:29:44;;;;;;;;;24.50;22.25;;;;;13.27;58.80;102035.38;5079023;27;46169;-49
2022/11/10 09:32:09;;;;;;;;;27.50;22.50;;;;;13.30;58.37;102040.59;5077748;28;64667;-47
2022/11/10 09:34:35;;;;;;;;;25.25;21.25;;;;;13.33;58.81;102034.44;5077698;27;68049;-47
2022/11/10 09:37:00;;;;;;;;;27.50;23.75;;;;;13.34;58.78;102031.78;5078679;27;71975;-46
2022/11/10 09:39:25;;;;;;;;;28.50;23.25;;;;;13.33;58.46;102032.66;5078399;27;60673;-50
2022/11/10 09:41:51;;;;;;;;;30.50;21.00;;;;;13.32;58.40;102030.94;5078469;28;57294;-48
2022/11/10 09:44:26;;;;;;;;;26.00;19.00;;;;;13.34;58.48;102042.31;5079361;27;45336;-50
2022/11/10 09:47:10;;;;;;;;;26.25;21.25;;;;;13.37;58.78;102036.13;5070027;27;45449;-47
2022/11/10 09:49:39;;;;;;;;;32.00;23.50;;;;;13.38;58.39;102046.59;5108025;27;45876;-47
2022/11/10 09:52:06;;;;;;;;;32.25;24.00;;;;;13.37;58.46;102044.00;5079415;27;45335;-48
2022/11/10 09:54:42;;;;;;;;;30.50;22.50;;;;;13.39;58.89;102040.47;5076962;27;59666;-46
2022/11/10 09:57:12;;;;;;;;;32.75;26.75;;;;;13.40;58.60;102041.31;5077857;27;46576;-50
2022/11/10 09:59:37;;;;;;;;;29.25;19.75;;;;;13.39;58.43;102040.47;5077936;28;45296;-47
2022/11/10 10:02:04;;;;;;;;;24.50;19.00;;;;;13.39;58.65;102040.47;5078154;28;67148;-49
2022/11/10 10:04:44;;;;;;;;;24.75;21.00;;;;;13.40;58.47;102047.47;5065037;28;45644;-51
2022/11/10 10:07:10;;;;;;;;;25.75;19.50;;;;;13.40;58.64;102050.09;5081676;27;46338;-52
2022/11/10 10:09:44;;;;;;;;;28.00;21.00;;;;;13.42;58.57;102055.31;5084117;27;45556;-52
2022/11/10 10:12:15;;;;;;;;;26.75;23.75;;;;;13.42;58.63;102069.34;5081179;27;45462;-49
2022/11/10 10:15:10;;;;;;;;;32.00;29.25;;;;;13.42;58.78;102071.97;5081730;28;45340;-51
2022/11/10 10:17:50;;;;;;;;;34.50;28.25;;;;;13.42;58.95;102078.97;5082242;27;46110;-52
2022/11/10 10:20:29;;;;;;;;;31.75;27.75;;;;;13.42;58.82;102081.59;5078545;28;45836;-51
2022/11/10 10:23:34;;;;;;;;;36.75;28.25;;;;;13.44;58.73;102080.69;5075746;27;45358;-46
2022/11/10 10:25:59;;;;;;;;;36.75;25.25;;;;;13.45;58.69;102081.56;5001842;28;45240;-50
2022/11/10 10:28:32;;;;;;;;;29.00;21.75;;;;;13.48;58.60;102082.38;5001165;28;65705;-48
2022/11/10 10:31:14;;;;;;;;;28.75;22.25;;;;;13.48;58.73;102086.78;5022465;28;45908;-47
2022/11/10 10:33:39;;;;;;;;;28.25;21.50;;;;;13.45;58.94;102102.59;5067702;27;45424;-48
2022/11/10 10:36:15;;;;;;;;;30.25;25.00;;;;;13.41;58.77;102099.16;5083957;27;45397;-48
2022/11/10 10:38:42;;;;;;;;;31.75;24.25;;;;;13.40;58.51;102107.97;5079216;28;46318;-46
2022/11/10 10:41:15;;;;;;;;;26.75;24.00;;;;;13.41;59.17;102112.31;5080235;27;55145;-46
2022/11/10 10:43:45;;;;;;;;;26.75;19.75;;;;;13.45;58.95;102121.88;5069731;28;45403;-48
2022/11/10 10:46:14;;;;;;;;;24.00;22.50;;;;;13.50;58.72;102116.53;5080983;27;45287;-47
2022/11/10 10:48:40;;;;;;;;;21.50;17.75;;;;;13.53;59.20;102121.75;5082032;27;46211;-50
2022/11/10 10:51:05;;;;;;;;;24.50;20.00;;;;;13.59;59.13;102123.41;5063378;28;45582;-47
2022/11/10 10:53:31;;;;;;;;;21.25;19.75;;;;;13.62;58.84;102124.22;5081892;27;45850;-46
2022/11/10 10:55:59;;;;;;;;;24.50;18.75;;;;;13.66;58.69;102120.63;5074373;27;55567;-48
2022/11/10 10:58:30;;;;;;;;;23.00;18.75;;;;;13.71;59.06;102112.66;5079055;28;46364;-49
2022/11/10 11:01:14;;;;;;;;;24.00;19.25;;;;;13.71;58.58;102106.56;5078855;27;45340;-46
2022/11/10 11:03:41;;;;;;;;;29.75;20.25;;;;;13.72;58.43;102110.91;5081928;27;45426;-50
2022/11/10 11:06:18;;;;;;;;;26.75;21.50;;;;;13.69;58.51;102111.84;5083521;27;45287;-49
2022/11/10 11:08:58;;;;;;;;;25.50;17.75;;;;;13.67;59.06;102105.75;5079672;27;46307;-48
2022/11/10 11:11:35;;;;;;;;;32.50;24.00;;;;;13.71;59.00;102106.56;5074600;27;45275;-46
2022/11/10 11:14:23;;;;;;;;;24.75;20.50;;;;;13.72;58.91;102101.22;5077838;27;45477;-48
2022/11/10 11:16:54;;;;;;;;;29.00;22.50;;;;;13.74;59.01;102101.22;5077714;28;45375;-47
2022/11/10 11:19:22;;;;;;;;;20.75;18.00;;;;;13.76;58.74;102102.94;5068597;28;46167;-46
2022/11/10 11:22:09;;;;;;;;;28.25;25.25;;;;;13.80;58.96;102096.72;5079791;27;45949;-49
2022/11/10 11:25:15;;;;;;;;;19.50;18.75;;;;;13.82;58.87;102097.53;5071768;27;45368;-45
2022/11/10 11:28:18;;;;;;;;;25.00;24.00;;;;;13.78;59.16;102102.91;5071534;28;45528;-45
2022/11/10 11:31:04;;;;;;;;;22.50;19.50;;;;;13.74;58.81;102101.22;5076834;28;46094;-49